📊 Raw Sensor Data

Showing records 39401 to 39425 of 84,945 total

ID Distance (ft) Battery V Battery A Int Temp (°F) Int Humid (%) Ext Temp (°F) Solar V RSSI SNR Time Stamp
45557 15.7 3.80 -11 80 57 76 3.20 -69 8 07/06/2025 08:30 PM
45556 15.7 3.82 0 86 56 80 4.60 -71 8 07/06/2025 08:15 PM
45555 15.7 3.89 0 90 55 84 4.60 -70 8 07/06/2025 08:00 PM
45554 15.8 3.90 6 94 54 87 4.60 -71 8 07/06/2025 07:45 PM
45553 15.8 3.90 9 96 53 89 4.60 -71 8 07/06/2025 07:30 PM
45552 15.8 3.91 0 99 52 92 4.60 -71 6 07/06/2025 07:15 PM
45551 15.8 3.88 23 101 52 95 4.60 -70 8 07/06/2025 07:00 PM
45550 15.8 4.08 0 102 51 94 5.10 -71 7 07/06/2025 06:45 PM
45549 15.8 3.80 0 103 51 95 5.10 -71 8 07/06/2025 06:30 PM
45548 15.8 3.80 -5 104 51 95 5.10 -71 8 07/06/2025 06:15 PM
45547 15.9 4.05 0 105 50 97 5.10 -70 8 07/06/2025 06:00 PM
45546 15.9 3.80 0 106 49 97 5.10 -71 8 07/06/2025 05:45 PM
45545 15.8 3.80 0 107 49 96 5.10 -71 8 07/06/2025 05:30 PM
45544 15.9 3.80 0 108 48 98 5.10 -71 7 07/06/2025 05:15 PM
45543 15.9 3.95 0 108 47 99 5.10 -72 8 07/06/2025 05:00 PM
45542 15.9 3.80 0 108 46 99 5.10 -71 8 07/06/2025 04:45 PM
45541 15.9 3.99 0 108 46 99 5.10 -71 8 07/06/2025 04:30 PM
45540 15.9 3.80 0 108 45 100 5.10 -71 7 07/06/2025 04:15 PM
45539 15.9 3.80 0 108 44 100 5.10 -71 8 07/06/2025 04:00 PM
45538 15.9 3.80 0 107 44 100 5.10 -71 8 07/06/2025 03:45 PM
45537 15.8 3.80 0 107 43 101 5.10 -73 5 07/06/2025 03:30 PM
45536 15.8 3.81 0 105 43 98 5.10 -70 8 07/06/2025 03:15 PM
45535 15.8 3.80 0 104 42 95 5.20 -71 7 07/06/2025 03:00 PM
45534 15.8 3.80 0 103 42 97 5.20 -71 8 07/06/2025 02:45 PM
45533 15.8 3.89 0 102 42 96 5.20 -72 8 07/06/2025 02:30 PM